createdAt,value
2022-11-06T00:09:58.683Z,13.30
2022-11-06T00:20:02.061Z,16.10
2022-11-06T00:30:07.204Z,16.20
2022-11-06T00:40:12.394Z,17.60
2022-11-06T00:50:15.831Z,15.10
2022-11-06T01:00:20.751Z,14.50
2022-11-06T01:10:24.059Z,14.30
2022-11-06T01:20:27.279Z,14.20
2022-11-06T01:30:30.919Z,16.00
2022-11-06T01:40:44.048Z,14.30
2022-11-06T01:50:51.694Z,16.50
2022-11-06T02:00:55.021Z,16.60
2022-11-06T02:10:58.730Z,13.80
2022-11-06T02:21:14.178Z,12.20
2022-11-06T02:31:23.525Z,13.90
2022-11-06T02:41:33.841Z,17.40
2022-11-06T02:51:44.011Z,19.20
2022-11-06T03:01:52.423Z,20.00
2022-11-06T03:12:20.753Z,19.10
2022-11-06T03:22:47.932Z,18.90
2022-11-06T03:33:02.715Z,16.70
2022-11-06T03:43:11.136Z,15.10
2022-11-06T03:53:22.560Z,13.50
2022-11-06T04:03:31.652Z,16.70
2022-11-06T04:13:56.957Z,16.90
2022-11-06T04:24:28.319Z,18.00
2022-11-06T04:34:40.580Z,20.40
2022-11-06T04:44:51.491Z,21.70
2022-11-06T04:54:57.772Z,18.60
2022-11-06T05:05:01.065Z,40.20
2022-11-06T05:15:05.261Z,29.90
2022-11-06T05:25:08.891Z,31.90
2022-11-06T05:35:12.415Z,33.60
2022-11-06T05:45:16.060Z,25.90
2022-11-06T05:55:19.716Z,39.50
2022-11-06T06:05:22.961Z,23.20
2022-11-06T06:15:26.223Z,31.10
2022-11-06T06:25:30.085Z,31.80
2022-11-06T06:35:34.329Z,31.90
2022-11-06T06:45:38.013Z,28.60
2022-11-06T06:55:42.519Z,30.30
2022-11-06T07:05:47.041Z,35.60
2022-11-06T07:15:50.276Z,90.20
2022-11-06T07:25:54.717Z,104.10
2022-11-06T07:36:04.500Z,67.90
2022-11-06T07:46:09.768Z,48.80
2022-11-06T07:56:13.049Z,44.80
2022-11-06T08:06:16.568Z,32.40
2022-11-06T08:16:19.844Z,28.50
2022-11-06T08:26:23.173Z,30.80
2022-11-06T08:36:27.059Z,27.40
2022-11-06T08:46:30.421Z,30.30
2022-11-06T08:56:33.670Z,28.90
2022-11-06T09:06:39.811Z,15.60
2022-11-06T09:16:43.003Z,14.50
2022-11-06T09:26:46.625Z,13.70
2022-11-06T09:36:49.905Z,13.70
2022-11-06T09:46:57.054Z,15.60
2022-11-06T09:57:06.872Z,13.40
2022-11-06T10:07:24.726Z,14.10
2022-11-06T10:17:43.293Z,11.90
2022-11-06T10:27:55.419Z,10.90
2022-11-06T10:38:24.689Z,11.30
2022-11-06T10:48:41.362Z,8.10
2022-11-06T10:58:45.247Z,9.10
2022-11-06T11:08:50.582Z,10.40
2022-11-06T11:18:54.418Z,8.90
2022-11-06T11:29:01.271Z,7.70
2022-11-06T11:39:04.677Z,7.90
2022-11-06T11:49:27.794Z,7.70
2022-11-06T11:59:55.524Z,10.70
2022-11-06T12:10:01.056Z,8.80
2022-11-06T12:20:11.811Z,8.40
2022-11-06T12:30:18.706Z,7.00
2022-11-06T12:40:25.629Z,12.00
2022-11-06T12:51:12.919Z,7.60
2022-11-06T13:01:33.468Z,9.50
2022-11-06T13:11:59.699Z,10.10
2022-11-06T13:22:30.278Z,10.90
2022-11-06T13:32:36.493Z,8.80
2022-11-06T13:42:58.662Z,8.80
2022-11-06T13:53:38.374Z,12.00
2022-11-06T14:03:59.674Z,19.90
2022-11-06T14:14:21.794Z,18.10
2022-11-06T14:24:41.744Z,14.80
2022-11-06T14:34:45.475Z,17.00
2022-11-06T14:44:55.423Z,19.90
2022-11-06T14:55:05.485Z,23.70
2022-11-06T15:05:18.113Z,34.80
2022-11-06T15:15:21.522Z,31.20
2022-11-06T15:25:30.306Z,27.70
2022-11-06T15:35:36.190Z,98.50
2022-11-06T15:45:39.464Z,96.80
2022-11-06T15:56:03.741Z,63.10
2022-11-06T16:06:07.278Z,118.90
2022-11-06T16:16:34.987Z,74.90
2022-11-06T16:26:45.450Z,69.00
2022-11-06T16:36:59.358Z,58.50
2022-11-06T16:47:05.838Z,40.30
2022-11-06T16:57:11.386Z,65.90
2022-11-06T17:07:21.924Z,74.40
2022-11-06T17:17:26.478Z,35.00
2022-11-06T17:27:29.753Z,31.70
2022-11-06T17:37:33.143Z,41.10
2022-11-06T17:47:36.526Z,56.10
2022-11-06T17:57:40.463Z,45.20
2022-11-06T18:07:43.750Z,36.40
2022-11-06T18:17:47.605Z,49.80
2022-11-06T18:27:50.898Z,42.00
2022-11-06T18:37:54.303Z,38.10
2022-11-06T18:47:59.411Z,40.40
2022-11-06T18:58:03.899Z,29.80
2022-11-06T19:08:07.191Z,30.10
2022-11-06T19:18:11.888Z,27.70
2022-11-06T19:28:17.008Z,29.60
2022-11-06T19:38:21.471Z,30.40
2022-11-06T19:48:24.779Z,37.10
2022-11-06T19:58:28.162Z,38.20
2022-11-06T20:08:32.211Z,56.30
2022-11-06T20:18:36.659Z,66.80
2022-11-06T20:28:39.950Z,43.10
2022-11-06T20:38:45.055Z,39.50
2022-11-06T20:48:49.940Z,45.30
2022-11-06T20:58:57.080Z,64.40
2022-11-06T21:09:00.817Z,58.40
2022-11-06T21:19:05.283Z,45.40
2022-11-06T21:29:11.495Z,39.70
2022-11-06T21:39:20.006Z,38.30
2022-11-06T21:49:23.299Z,32.90
2022-11-06T21:59:28.738Z,30.20
2022-11-06T22:09:31.968Z,30.10
2022-11-06T22:19:35.307Z,31.50
2022-11-06T22:29:38.525Z,30.10
2022-11-06T22:39:41.831Z,34.40
2022-11-06T22:49:45.087Z,31.70
2022-11-06T22:59:48.286Z,28.80
2022-11-06T23:09:51.760Z,33.20
2022-11-06T23:19:56.688Z,30.70
2022-11-06T23:30:02.780Z,29.50
2022-11-06T23:40:08.085Z,29.70
2022-11-06T23:50:11.610Z,28.20
